aviador You're here:

LFOT Decoded Metar

TOURS in FRANCE
Report Time2017-08-20 19:00:00
UTC Time2017-08-20 19:14:26
Flight Rules vfr VFR
Wind010° at 03 kt
W.Decomp.*RWY 02: 3.0 kt HW 0.5 kt LCW
W.Rank010° ranks 24
Current wind is below 010° avg. (5.4)
Visibility9999 m
Phenomena:N/A
Clouds:N/A
Expected CloudBase > 4,000 ft AGL from Temp-Dew spread
CeilingNone
Temp21°C (ISA +7)
Dew Point11°C (53% RH)
AAT20.3°C
QNH1024 hPa
Density Alt945 ft
Elevation354 ft
Report Wrong Elevation
Raw Report
LFOT 201900Z AUTO 01003KT CAVOK 21/11 Q1024 NOSIG=

Extra information for LFOT:More info

Metar Taf Metar & Taf Last 4 Metars F.Rules Stats Wind Profile Meteogram Temp Stats Airport Information Weather charts Add Link Nearby VenuesMetar ALERT Operation Metar Decoded Social comments